Time;durP1;ratioP1;P1;durP2;ratioP2;P2;SDS_P1;SDS_P2;PMS_P1;PMS_P2;Temp;Humidity;BMP_temperature;BMP_pressure;BME280_temperature;BME280_humidity;BME280_pressure;Samples;Min_cycle;Max_cycle;Signal;HPM_P1;HPM_P2
2022/06/06 00:01:00;;;;;;;6.15;4.53;;;;;;;24.05;52.89;94553.72;4169598;28;20061;-57
2022/06/06 00:03:02;;;;;;;7.18;4.28;;;;;;;23.98;52.80;94550.38;4166455;28;20057;-56
2022/06/06 00:05:05;;;;;;;9.57;4.45;;;;;;;23.91;52.67;94550.56;4173800;28;20065;-57
2022/06/06 00:07:06;;;;;;;6.35;4.57;;;;;;;23.89;53.15;94553.47;4162040;28;20513;-55
2022/06/06 00:09:10;;;;;;;7.82;4.20;;;;;;;23.90;52.91;94546.28;4171596;28;20048;-56
2022/06/06 00:11:12;;;;;;;6.70;4.10;;;;;;;23.93;52.89;94543.09;4169257;28;20053;-59
2022/06/06 00:13:14;;;;;;;6.10;4.78;;;;;;;23.95;52.51;94540.19;4159031;28;20053;-57
2022/06/06 00:15:16;;;;;;;6.90;4.40;;;;;;;23.94;52.88;94538.56;4158838;28;20053;-57
2022/06/06 00:17:19;;;;;;;7.85;4.82;;;;;;;23.89;52.65;94536.63;4172389;28;20049;-58
2022/06/06 00:19:21;;;;;;;6.70;4.90;;;;;;;23.39;53.85;94532.91;4163413;28;20052;-57
2022/06/06 00:21:23;;;;;;;6.32;4.50;;;;;;;23.08;54.64;94527.06;4172329;28;20132;-57
2022/06/06 00:23:25;;;;;;;8.18;4.60;;;;;;;22.94;55.44;94532.91;4170240;28;20045;-57
2022/06/06 00:25:30;;;;;;;10.75;4.47;;;;;;;22.81;55.91;94520.66;4169314;28;20468;-58
2022/06/06 00:27:32;;;;;;;8.80;4.65;;;;;;;22.85;55.77;94517.28;4174906;28;20123;-57
2022/06/06 00:29:35;;;;;;;6.45;4.22;;;;;;;22.95;55.68;94513.16;4163381;28;20065;-55
2022/06/06 00:36:17;;;;;;;10.30;5.45;;;;;;;23.24;54.81;94490.69;4168290;28;20057;-57
2022/06/06 00:38:19;;;;;;;10.50;5.00;;;;;;;23.33;54.93;94485.75;4171011;28;20041;-58
2022/06/06 00:40:23;;;;;;;7.70;4.35;;;;;;;23.42;54.78;94478.13;4170805;28;20048;-59
2022/06/06 00:42:31;;;;;;;6.68;4.28;;;;;;;23.47;54.56;94479.03;4173941;28;20541;-56
2022/06/06 00:44:34;;;;;;;7.95;4.05;;;;;;;23.55;54.33;94487.69;4167495;28;20140;-56
2022/06/06 00:46:39;;;;;;;5.53;3.75;;;;;;;23.59;54.20;94478.94;4162588;28;20045;-57
2022/06/06 00:48:41;;;;;;;5.65;4.00;;;;;;;23.68;53.63;94477.47;4160939;28;20126;-59
2022/06/06 00:50:58;;;;;;;7.93;4.07;;;;;;;23.70;53.73;94477.22;4160978;28;20057;-58
2022/06/06 00:53:00;;;;;;;9.63;4.13;;;;;;;23.68;53.43;94471.28;4165736;28;20057;-57
2022/06/06 00:55:20;;;;;;;7.72;4.18;;;;;;;23.64;53.53;94462.97;4164705;28;20048;-56
2022/06/06 00:57:27;;;;;;;9.50;3.75;;;;;;;23.66;53.76;94457.34;4164959;28;20095;-58
2022/06/06 00:59:31;;;;;;;8.50;4.50;;;;;;;23.67;53.66;94465.16;4169182;28;20056;-57
2022/06/06 01:01:36;;;;;;;5.93;4.18;;;;;;;23.71;53.54;94452.91;4171716;28;20086;-57
2022/06/06 01:03:38;;;;;;;6.22;4.18;;;;;;;23.71;53.43;94455.56;4162505;28;20068;-56
2022/06/06 01:05:42;;;;;;;8.02;4.25;;;;;;;23.74;53.45;94445.44;4173591;28;20060;-55
2022/06/06 01:07:44;;;;;;;8.18;4.30;;;;;;;23.78;53.31;94439.38;4160956;28;20465;-57
2022/06/06 01:09:46;;;;;;;8.57;4.40;;;;;;;23.78;53.32;94441.25;4172726;28;20057;-57
2022/06/06 01:11:55;;;;;;;6.78;4.60;;;;;;;23.78;53.18;94434.03;4161329;28;20050;-57
2022/06/06 01:13:57;;;;;;;7.07;3.78;;;;;;;23.77;53.07;94426.25;4166289;28;20110;-57
2022/06/06 01:16:25;;;;;;;6.57;4.00;;;;;;;23.80;53.36;94412.38;4175073;28;20057;-57
2022/06/06 01:18:38;;;;;;;12.05;4.45;;;;;;;23.77;53.51;94407.53;4175710;28;20135;-57
2022/06/06 01:21:05;;;;;;;8.18;4.30;;;;;;;23.76;54.33;94420.09;4161562;28;20053;-56
2022/06/06 01:23:15;;;;;;;9.50;4.72;;;;;;;23.73;55.65;94422.44;4173437;28;20049;-58
2022/06/06 01:25:38;;;;;;;5.35;4.25;;;;;;;23.68;56.02;94413.28;4158108;28;20111;-57
2022/06/06 01:27:49;;;;;;;6.00;4.20;;;;;;;23.62;55.80;94408.13;4160872;28;20049;-57
2022/06/06 01:30:04;;;;;;;8.13;4.95;;;;;;;23.56;56.43;94419.81;4157485;28;20060;-58
2022/06/06 01:32:11;;;;;;;8.30;4.78;;;;;;;23.55;56.14;94418.16;4170664;28;20179;-54
2022/06/06 01:34:20;;;;;;;8.77;4.90;;;;;;;23.44;56.37;94447.44;4167841;28;20056;-58
2022/06/06 01:36:24;;;;;;;5.85;3.97;;;;;;;23.23;57.08;94486.44;4165923;28;20070;-56
2022/06/06 01:38:26;;;;;;;10.05;4.72;;;;;;;22.73;58.13;94585.94;4163272;28;20617;-57
2022/06/06 01:40:54;;;;;;;8.52;4.85;;;;;;;22.41;59.72;94591.72;4168595;28;20045;-57
2022/06/06 01:43:01;;;;;;;6.57;4.72;;;;;;;22.06;59.99;94584.53;4168812;28;20122;-57
2022/06/06 01:45:16;;;;;;;10.75;5.05;;;;;;;21.96;60.21;94596.81;4166605;28;20056;-57
2022/06/06 01:47:29;;;;;;;10.10;5.53;;;;;;;21.70;63.60;94588.22;4168139;28;20048;-55
2022/06/06 01:49:33;;;;;;;25.10;6.77;;;;;;;21.59;66.34;94587.19;4168611;28;20131;-54
2022/06/06 01:51:35;;;;;;;15.57;6.97;;;;;;;21.66;67.75;94573.75;4167628;28;20316;-54
2022/06/06 01:53:38;;;;;;;15.82;7.00;;;;;;;21.74;68.21;94541.41;4176630;28;20049;-56
2022/06/06 01:55:42;;;;;;;15.43;6.72;;;;;;;21.66;67.94;94517.75;4172995;28;20064;-54
2022/06/06 01:57:45;;;;;;;11.75;5.97;;;;;;;21.54;67.07;94508.97;4171523;28;20053;-54
2022/06/06 01:59:47;;;;;;;9.38;4.80;;;;;;;21.37;65.67;94530.13;4167440;28;20049;-56
2022/06/06 02:01:48;;;;;;;11.55;4.45;;;;;;;21.20;66.29;94525.47;4173476;28;20106;-56
2022/06/06 02:03:50;;;;;;;11.52;3.72;;;;;;;21.22;66.37;94518.06;4163991;28;20236;-54
2022/06/06 02:05:52;;;;;;;10.35;4.35;;;;;;;21.09;67.34;94526.25;4166356;28;20060;-55
2022/06/06 02:07:54;;;;;;;11.27;3.92;;;;;;;21.02;67.90;94525.56;4164779;28;20478;-56
2022/06/06 02:09:56;;;;;;;8.02;3.80;;;;;;;20.98;68.13;94535.84;4170882;28;20049;-58
2022/06/06 02:12:01;;;;;;;10.20;3.83;;;;;;;20.96;65.77;94542.44;4168128;28;20056;-55
2022/06/06 02:14:02;;;;;;;9.30;3.28;;;;;;;20.94;67.05;94544.53;4166149;28;20045;-56
2022/06/06 02:16:04;;;;;;;8.73;3.75;;;;;;;20.85;66.61;94565.34;4171423;28;20106;-55
2022/06/06 02:18:06;;;;;;;9.10;4.45;;;;;;;20.81;66.54;94574.81;4176092;28;20497;-54
2022/06/06 02:20:10;;;;;;;7.10;3.60;;;;;;;20.84;67.31;94582.31;4169359;28;20516;-57
2022/06/06 02:22:12;;;;;;;;;;;;;;;20.80;67.99;94597.13;4169179;28;20068;-55
2022/06/06 02:24:13;;;;;;;7.07;3.47;;;;;;;20.71;68.79;94607.28;4160103;28;19928;-57
2022/06/06 02:26:16;;;;;;;9.57;3.63;;;;;;;20.73;69.12;94607.84;4162155;28;20061;-54
2022/06/06 02:28:36;;;;;;;10.67;3.87;;;;;;;20.74;69.03;94620.16;4175729;28;20493;-56
2022/06/06 02:30:38;;;;;;;8.82;3.75;;;;;;;20.71;68.65;94633.09;4174284;28;20286;-56
2022/06/06 02:32:41;;;;;;;10.68;4.03;;;;;;;20.61;69.26;94641.59;4166212;28;20119;-54
2022/06/06 02:34:42;;;;;;;8.48;3.55;;;;;;;20.63;68.83;94631.56;4159934;28;20050;-54
2022/06/06 02:36:44;;;;;;;7.60;3.90;;;;;;;20.61;69.23;94630.97;4173266;28;20056;-55
2022/06/06 02:38:46;;;;;;;10.27;3.90;;;;;;;20.63;69.65;94613.72;4167295;28;20469;-53
2022/06/06 02:40:48;;;;;;;9.13;4.43;;;;;;;20.63;69.75;94608.41;4170839;28;20052;-55
2022/06/06 02:42:50;;;;;;;8.60;4.07;;;;;;;20.62;69.42;94590.78;4167576;28;20127;-55
2022/06/06 02:44:52;;;;;;;11.50;4.20;;;;;;;20.33;71.98;94579.06;4163991;28;20911;-56
2022/06/06 02:46:53;;;;;;;11.45;4.78;;;;;;;20.30;72.83;94566.19;4164694;28;20123;-56
2022/06/06 02:48:55;;;;;;;10.23;5.38;;;;;;;20.34;73.61;94546.09;4169073;28;20094;-55
2022/06/06 02:50:58;;;;;;;11.50;5.15;;;;;;;20.25;74.08;94536.78;4171374;28;20213;-55
2022/06/06 02:52:59;;;;;;;10.98;5.53;;;;;;;20.28;74.78;94503.59;4159088;28;20160;-55
2022/06/06 02:55:03;;;;;;;14.13;5.75;;;;;;;20.43;75.77;94477.41;4159149;28;20140;-55
2022/06/06 02:57:05;;;;;;;;;;;;;;;20.59;75.91;94473.34;4167155;28;20129;-56
2022/06/06 02:59:07;;;;;;;13.90;6.18;;;;;;;20.70;74.77;94485.88;4169807;28;19994;-55
2022/06/06 03:01:11;;;;;;;11.50;5.80;;;;;;;20.66;73.78;94482.03;4166146;28;20057;-54
2022/06/06 03:03:13;;;;;;;9.32;5.40;;;;;;;20.72;73.91;94475.00;4175168;28;20103;-53
2022/06/06 03:05:15;;;;;;;14.15;6.32;;;;;;;20.77;74.49;94489.25;4165366;28;20095;-54
2022/06/06 03:07:50;;;;;;;12.00;5.18;;;;;;;20.81;73.24;94494.94;4171009;28;20044;-55
2022/06/06 03:09:58;;;;;;;10.02;5.28;;;;;;;20.63;73.84;94496.63;4166406;28;20053;-54
2022/06/06 03:12:28;;;;;;;9.57;5.68;;;;;;;20.23;75.34;94513.06;4162926;28;20341;-56
2022/06/06 03:15:08;;;;;;;9.07;6.10;;;;;;;19.79;77.82;94527.50;4159127;28;20130;-55
2022/06/06 03:20:49;;;;;;;15.07;6.40;;;;;;;19.45;80.31;94532.28;4168699;28;20151;-54
2022/06/06 03:23:28;;;;;;;14.55;6.13;;;;;;;19.61;79.34;94547.63;4168877;28;20474;-56
2022/06/06 03:25:57;;;;;;;11.38;6.28;;;;;;;19.61;78.91;94555.59;4159162;28;20494;-54
2022/06/06 03:28:08;;;;;;;11.20;5.85;;;;;;;19.63;79.09;94561.53;4155295;28;20065;-53
2022/06/06 03:30:23;;;;;;;14.20;5.68;;;;;;;19.62;79.66;94580.34;4157474;28;20513;-55
2022/06/06 03:32:28;;;;;;;15.20;6.78;;;;;;;19.62;79.89;94591.78;4158920;28;20103;-51
2022/06/06 03:35:08;;;;;;;9.70;6.45;;;;;;;19.73;80.58;94600.13;4163462;28;20061;-54
2022/06/06 03:37:38;;;;;;;12.20;7.13;;;;;;;19.74;80.18;94601.75;4172232;28;20049;-55
2022/06/06 03:40:09;;;;;;;13.50;7.43;;;;;;;19.87;80.01;94598.94;4157248;28;20049;-55
2022/06/06 03:42:26;;;;;;;11.60;6.88;;;;;;;20.04;79.18;94594.69;4173353;28;20057;-55
2022/06/06 03:44:41;;;;;;;14.38;7.60;;;;;;;20.17;78.94;94582.28;4173721;28;20044;-54
2022/06/06 03:46:56;;;;;;;15.25;6.85;;;;;;;20.31;78.30;94583.78;4175309;28;20064;-54
2022/06/06 03:49:26;;;;;;;12.13;7.30;;;;;;;20.44;77.74;94591.59;4160998;28;20049;-56
2022/06/06 03:51:59;;;;;;;11.75;7.40;;;;;;;20.54;76.81;94592.91;4158833;28;20465;-53
2022/06/06 03:54:01;;;;;;;12.82;7.35;;;;;;;20.60;76.52;94592.88;4171161;28;20140;-54
2022/06/06 03:56:22;;;;;;;15.88;7.57;;;;;;;20.69;76.39;94584.59;4174707;28;20489;-56
2022/06/06 03:58:27;;;;;;;11.55;8.55;;;;;;;20.75;75.64;94581.03;4163877;28;20057;-54
2022/06/06 04:00:29;;;;;;;12.38;7.13;;;;;;;20.82;75.37;94574.59;4163575;28;20118;-55
2022/06/06 04:02:33;;;;;;;11.40;7.47;;;;;;;20.91;75.56;94577.75;4157346;28;20057;-56
2022/06/06 04:04:35;;;;;;;11.50;7.28;;;;;;;20.99;75.35;94569.44;4170495;28;20564;-54
2022/06/06 04:06:37;;;;;;;13.55;7.85;;;;;;;21.10;74.74;94572.34;4172890;28;21523;-56
2022/06/06 04:08:39;;;;;;;12.18;7.93;;;;;;;21.14;74.78;94574.31;4169014;28;20048;-53
2022/06/06 04:11:04;;;;;;;12.93;7.65;;;;;;;21.19;74.56;94579.78;4175827;28;20079;-56
2022/06/06 04:13:30;;;;;;;13.77;8.68;;;;;;;21.22;74.20;94565.19;4174391;28;20059;-52
2022/06/06 04:15:54;;;;;;;14.27;7.40;;;;;;;21.19;73.07;94555.81;4175249;28;20111;-55
2022/06/06 04:18:23;;;;;;;17.27;8.07;;;;;;;21.09;72.35;94568.06;4172273;28;20411;-56
2022/06/06 04:20:31;;;;;;;16.90;6.60;;;;;;;21.01;73.47;94567.34;4169623;28;20132;-56
2022/06/06 04:22:54;;;;;;;11.68;7.22;;;;;;;21.04;73.57;94560.78;4171166;28;20151;-55
2022/06/06 04:25:20;;;;;;;14.85;8.02;;;;;;;21.00;72.60;94562.25;4175719;28;20474;-56
2022/06/06 04:27:40;;;;;;;15.07;8.23;;;;;;;20.94;73.70;94568.47;4162784;28;20048;-55
2022/06/06 04:30:02;;;;;;;14.18;8.75;;;;;;;20.97;73.91;94570.69;4160104;28;20115;-55
2022/06/06 04:32:19;;;;;;;11.55;7.93;;;;;;;21.02;73.81;94576.97;4163729;28;20048;-54
2022/06/06 04:34:32;;;;;;;11.02;6.97;;;;;;;21.11;73.86;94577.44;4172656;28;20045;-57
2022/06/06 04:36:38;;;;;;;12.15;7.70;;;;;;;21.23;73.79;94575.63;4164727;28;20118;-54
2022/06/06 04:39:11;;;;;;;14.80;8.55;;;;;;;21.31;73.82;94571.81;4161121;28;20076;-53
2022/06/06 04:41:31;;;;;;;12.98;7.95;;;;;;;21.44;73.25;94571.63;4164947;28;20358;-54
2022/06/06 04:43:35;;;;;;;15.60;8.65;;;;;;;21.55;73.06;94572.69;4166382;28;20099;-56
2022/06/06 04:45:49;;;;;;;14.70;8.55;;;;;;;21.41;71.67;94581.94;4159882;28;20130;-58
2022/06/06 04:47:51;;;;;;;;;;;;;;;21.12;72.10;94575.59;4163919;28;20072;-54
2022/06/06 04:49:54;;;;;;;10.38;7.93;;;;;;;20.97;73.25;94579.50;4172214;28;19921;-56
2022/06/06 04:51:58;;;;;;;18.40;8.40;;;;;;;21.03;73.80;94583.09;4167263;28;20115;-53
2022/06/06 04:54:01;;;;;;;11.55;8.35;;;;;;;21.15;73.77;94589.28;4158970;28;20107;-55
2022/06/06 04:56:02;;;;;;;11.73;8.10;;;;;;;21.31;73.63;94589.66;4157797;28;20150;-58
2022/06/06 04:58:05;;;;;;;14.55;7.85;;;;;;;21.45;73.08;94588.47;4165540;28;20110;-55
2022/06/06 05:00:08;;;;;;;10.63;7.95;;;;;;;21.59;72.59;94589.03;4176314;28;20049;-56
2022/06/06 05:02:09;;;;;;;15.02;7.95;;;;;;;21.72;71.97;94590.69;4168003;28;20087;-54
2022/06/06 05:04:11;;;;;;;10.93;7.82;;;;;;;21.80;70.80;94593.00;4173226;28;20337;-56
2022/06/06 05:06:29;;;;;;;16.52;7.97;;;;;;;21.82;71.10;94593.59;4169139;28;20118;-56
2022/06/06 05:09:05;;;;;;;12.18;8.00;;;;;;;21.89;70.80;94596.94;4161271;28;20476;-57
2022/06/06 05:11:25;;;;;;;9.88;7.18;;;;;;;21.89;70.18;94596.94;4173079;28;20474;-57
2022/06/06 05:13:39;;;;;;;13.05;7.38;;;;;;;21.90;70.41;94595.91;4166563;28;20053;-56
2022/06/06 05:16:05;;;;;;;12.52;7.75;;;;;;;21.94;70.72;94602.41;4165538;28;20053;-58
2022/06/06 05:18:20;;;;;;;14.52;7.55;;;;;;;22.02;70.68;94595.91;4173453;28;20134;-57
2022/06/06 05:20:40;;;;;;;12.35;8.25;;;;;;;22.04;69.88;94596.47;4174926;28;20045;-56
2022/06/06 05:23:12;;;;;;;14.60;7.82;;;;;;;22.09;69.01;94604.59;4175475;28;20060;-55
2022/06/06 05:25:33;;;;;;;12.48;7.90;;;;;;;22.15;69.03;94601.00;4175642;28;20049;-53
2022/06/06 05:27:48;;;;;;;16.30;8.57;;;;;;;22.19;68.88;94602.16;4165706;28;20049;-54
2022/06/06 05:30:28;;;;;;;12.48;8.38;;;;;;;22.26;69.20;94604.72;4167077;28;20045;-55
2022/06/06 05:33:03;;;;;;;12.73;7.45;;;;;;;22.31;68.39;94598.72;4169680;28;20049;-54
2022/06/06 05:35:12;;;;;;;13.32;7.43;;;;;;;22.39;68.74;94598.31;4160961;28;20462;-55
2022/06/06 05:37:51;;;;;;;11.52;7.65;;;;;;;22.51;69.04;94601.78;4160510;28;20049;-58
2022/06/06 05:39:55;;;;;;;12.20;7.53;;;;;;;22.55;67.62;94602.94;4173532;28;20053;-56
2022/06/06 05:42:10;;;;;;;10.57;6.80;;;;;;;22.67;67.76;94608.25;4172013;28;20056;-59
2022/06/06 05:44:49;;;;;;;12.07;7.40;;;;;;;22.74;67.05;94608.94;4174474;28;20049;-56
2022/06/06 05:47:03;;;;;;;12.32;7.15;;;;;;;22.81;66.50;94606.94;4170168;28;20551;-55
2022/06/06 05:49:12;;;;;;;13.43;7.55;;;;;;;22.89;66.57;94603.88;4164887;28;20164;-54
2022/06/06 05:51:16;;;;;;;11.38;7.75;;;;;;;23.00;66.06;94607.59;4164471;28;20073;-57
2022/06/06 05:53:33;;;;;;;16.20;7.35;;;;;;;23.08;65.35;94612.56;4172424;28;20106;-57
2022/06/06 05:55:38;;;;;;;15.40;7.18;;;;;;;23.19;65.70;94610.88;4162354;28;20057;-58
2022/06/06 05:58:03;;;;;;;13.75;7.70;;;;;;;23.25;65.51;94603.75;4166729;28;20111;-56
2022/06/06 06:00:23;;;;;;;12.77;7.50;;;;;;;23.37;65.81;94603.69;4171046;28;20053;-56
2022/06/06 06:02:37;;;;;;;11.80;7.75;;;;;;;23.48;65.59;94600.16;4160469;28;20057;-59
2022/06/06 06:04:52;;;;;;;14.57;7.38;;;;;;;23.50;64.79;94603.38;4160138;28;20061;-60
2022/06/06 06:07:16;;;;;;;14.52;6.80;;;;;;;23.51;64.74;94610.34;4170870;28;20525;-61
2022/06/06 06:09:36;;;;;;;15.27;7.05;;;;;;;23.49;65.19;94612.47;4175551;28;20040;-56
2022/06/06 06:11:50;;;;;;;12.77;6.53;;;;;;;23.49;64.80;94612.47;4160728;28;20398;-54
2022/06/06 06:14:11;;;;;;;16.02;6.95;;;;;;;23.30;64.36;94610.00;4159444;28;20049;-57
2022/06/06 06:16:14;;;;;;;10.43;6.82;;;;;;;23.09;64.33;94613.34;4157824;28;20053;-57
2022/06/06 06:18:39;;;;;;;12.02;6.13;;;;;;;22.78;64.05;94609.25;4158755;28;20045;-56
2022/06/06 06:20:52;;;;;;;12.82;5.97;;;;;;;22.52;64.32;94614.09;4177206;28;20155;-56
2022/06/06 06:22:57;;;;;;;9.90;5.82;;;;;;;22.09;66.69;94613.41;4161905;28;20111;-57
2022/06/06 06:25:00;;;;;;;14.13;6.85;;;;;;;22.01;67.23;94608.44;4159158;28;20049;-56
2022/06/06 06:27:03;;;;;;;17.80;7.40;;;;;;;22.13;67.28;94602.28;4164116;28;20106;-55
2022/06/06 06:29:07;;;;;;;14.05;7.35;;;;;;;22.25;66.44;94609.25;4168118;28;20053;-56
2022/06/06 06:31:21;;;;;;;11.60;7.15;;;;;;;22.38;66.16;94613.53;4160072;28;20056;-55
2022/06/06 06:33:28;;;;;;;18.50;7.57;;;;;;;22.59;66.53;94608.63;4174980;28;20052;-53
2022/06/06 06:35:59;;;;;;;12.32;6.70;;;;;;;22.87;67.52;94615.88;4170578;28;20454;-58
2022/06/06 06:38:14;;;;;;;15.70;7.93;;;;;;;23.14;65.19;94600.09;4163622;28;20502;-57
2022/06/06 06:40:35;;;;;;;13.00;7.18;;;;;;;23.29;64.60;94592.34;4170855;28;20049;-57
2022/06/06 06:42:58;;;;;;;12.02;7.15;;;;;;;23.45;64.40;94595.28;4161578;28;20057;-54
2022/06/06 06:45:08;;;;;;;18.20;7.80;;;;;;;23.60;63.83;94587.53;4158001;28;20057;-56
2022/06/06 06:47:11;;;;;;;16.40;8.13;;;;;;;23.36;63.20;94586.03;4160699;28;20068;-56
2022/06/06 06:49:35;;;;;;;15.65;7.90;;;;;;;22.81;64.57;94582.88;4173926;28;20417;-55
2022/06/06 06:51:37;;;;;;;12.88;7.55;;;;;;;22.69;66.46;94580.28;4169361;28;20438;-56
2022/06/06 06:54:00;;;;;;;15.73;7.43;;;;;;;22.94;65.83;94562.28;4159495;28;20108;-57
2022/06/06 06:56:25;;;;;;;16.90;8.30;;;;;;;23.21;65.72;94554.50;4159945;28;20462;-55
2022/06/06 06:58:38;;;;;;;16.48;8.35;;;;;;;23.52;63.99;94551.28;4164874;28;20690;-57
2022/06/06 07:00:56;;;;;;;13.13;7.83;;;;;;;23.78;63.71;94551.72;4158226;28;20056;-59
2022/06/06 07:08:33;;;;;;;18.70;8.65;;;;;;;24.11;62.75;94550.84;4162198;28;20254;-55
2022/06/06 07:10:57;;;;;;;16.15;8.13;;;;;;;23.58;63.20;94546.03;4168096;28;20118;-58
2022/06/06 07:13:14;;;;;;;19.17;8.50;;;;;;;23.29;64.76;94546.09;4160661;28;20053;-58
2022/06/06 07:15:26;;;;;;;14.40;7.75;;;;;;;23.28;65.08;94536.47;4157637;28;20053;-57
2022/06/06 07:17:31;;;;;;;19.20;9.90;;;;;;;23.23;65.91;94529.19;4157908;28;20096;-57
2022/06/06 07:22:03;;;;;;;20.95;11.60;;;;;;;23.08;67.46;94527.06;4166350;28;20490;-59
2022/06/06 07:24:10;;;;;;;14.90;8.88;;;;;;;23.26;66.66;94522.53;4164170;28;20053;-56
2022/06/06 07:26:12;;;;;;;17.67;9.55;;;;;;;23.07;67.44;94530.78;4161633;28;20045;-55
2022/06/06 07:28:15;;;;;;;15.25;8.93;;;;;;;23.30;66.91;94526.34;4169504;28;20098;-54
2022/06/06 07:30:18;;;;;;;23.05;9.10;;;;;;;23.67;66.48;94521.31;4158743;28;20056;-56
2022/06/06 07:32:52;;;;;;;24.92;11.45;;;;;;;23.71;65.75;94518.97;4167065;28;20142;-54
2022/06/06 07:34:56;;;;;;;17.67;8.73;;;;;;;23.87;64.93;94534.19;4167323;28;20502;-54
2022/06/06 07:37:16;;;;;;;17.70;8.18;;;;;;;23.66;65.11;94535.75;4163232;28;20122;-56
2022/06/06 07:39:26;;;;;;;12.35;7.53;;;;;;;23.83;65.18;94541.09;4158605;28;20056;-56
2022/06/06 07:41:39;;;;;;;18.88;7.93;;;;;;;23.85;64.21;94544.31;4157977;28;20049;-56
2022/06/06 07:44:02;;;;;;;19.83;8.77;;;;;;;23.55;64.38;94549.97;4163615;28;20528;-56
2022/06/06 07:46:12;;;;;;;15.38;6.68;;;;;;;23.53;63.32;94541.41;4157335;28;20453;-56
2022/06/06 07:48:20;;;;;;;11.40;5.78;;;;;;;23.33;64.34;94541.88;4158533;28;20359;-55
2022/06/06 07:50:29;;;;;;;16.20;5.70;;;;;;;23.44;64.32;94541.00;4175157;28;20049;-56
2022/06/06 07:52:42;;;;;;;12.85;6.28;;;;;;;23.63;63.01;94544.22;4173566;28;20123;-55
2022/06/06 07:54:56;;;;;;;12.68;6.00;;;;;;;23.69;63.39;94543.25;4168880;28;20057;-56
2022/06/06 07:57:04;;;;;;;14.18;6.18;;;;;;;23.80;62.83;94546.94;4159378;28;20053;-55
2022/06/06 07:59:13;;;;;;;13.55;5.68;;;;;;;23.91;62.11;94550.56;4166043;28;20715;-56
2022/06/06 08:01:32;;;;;;;19.92;6.03;;;;;;;23.95;62.19;94549.00;4163891;28;20088;-56
2022/06/06 08:03:51;;;;;;;17.63;6.65;;;;;;;24.03;62.70;94545.94;4164471;28;20132;-56
2022/06/06 08:06:04;;;;;;;16.02;6.00;;;;;;;24.15;61.21;94545.81;4161685;28;20103;-56
2022/06/06 08:08:16;;;;;;;19.90;7.45;;;;;;;24.24;60.46;94541.66;4167936;28;20556;-58
2022/06/06 08:10:27;;;;;;;16.70;6.95;;;;;;;24.41;60.83;94541.56;4164980;28;20037;-57
2022/06/06 08:13:15;;;;;;;13.98;7.05;;;;;;;24.33;60.94;94547.38;4167632;28;20445;-58
2022/06/06 08:15:30;;;;;;;18.10;5.50;;;;;;;24.37;60.69;94551.19;4165718;28;20103;-55
2022/06/06 08:17:50;;;;;;;21.17;8.20;;;;;;;24.21;60.51;94560.06;4164461;28;20045;-57
2022/06/06 08:20:07;;;;;;;19.25;8.73;;;;;;;24.08;59.28;94551.34;4167612;28;20056;-55
2022/06/06 08:22:10;;;;;;;16.67;7.03;;;;;;;23.86;59.46;94550.50;4161894;28;20159;-57
2022/06/06 08:24:38;;;;;;;24.95;8.90;;;;;;;23.92;57.96;94560.22;4158068;28;20115;-57
2022/06/06 08:26:51;;;;;;;17.17;7.63;;;;;;;24.06;57.97;94564.16;4164360;28;20506;-56
2022/06/06 08:28:53;;;;;;;15.00;5.40;;;;;;;24.28;58.43;94566.03;4172127;28;20093;-56
2022/06/06 08:30:55;;;;;;;15.30;5.57;;;;;;;24.36;58.17;94568.31;4162324;28;20407;-56
2022/06/06 08:32:56;;;;;;;16.75;6.22;;;;;;;24.34;57.03;94583.78;4167370;28;20091;-56
2022/06/06 08:34:58;;;;;;;28.20;8.90;;;;;;;24.32;57.81;94567.97;4174348;28;20106;-55
2022/06/06 08:37:15;;;;;;;24.50;7.35;;;;;;;24.52;57.47;94563.97;4165617;28;20447;-56
2022/06/06 08:39:34;;;;;;;15.60;5.88;;;;;;;24.58;57.33;94562.16;4170140;28;20045;-56
2022/06/06 08:41:41;;;;;;;15.05;5.45;;;;;;;24.71;56.95;94561.78;4157421;28;20522;-57
2022/06/06 08:44:06;;;;;;;15.02;5.32;;;;;;;24.75;57.28;94562.91;4160171;28;20131;-56
2022/06/06 08:46:21;;;;;;;15.55;4.88;;;;;;;24.74;56.04;94555.94;4157286;28;20466;-57
2022/06/06 08:48:25;;;;;;;18.42;4.53;;;;;;;24.78;55.91;94559.75;4158629;28;20072;-57
2022/06/06 08:50:48;;;;;;;10.65;4.82;;;;;;;24.58;56.19;94564.84;4169579;28;20145;-56
2022/06/06 08:52:58;;;;;;;11.52;4.22;;;;;;;24.48;55.89;94569.03;4160458;28;20104;-57
2022/06/06 08:55:28;;;;;;;12.43;5.03;;;;;;;24.43;56.01;94574.28;4163191;28;20304;-55
2022/06/06 08:57:30;;;;;;;14.38;5.05;;;;;;;24.26;56.61;94568.16;4173295;28;20115;-58
2022/06/06 08:59:31;;;;;;;10.73;4.55;;;;;;;24.11;56.78;94577.63;4174169;28;20044;-56
2022/06/06 09:01:48;;;;;;;11.95;4.05;;;;;;;23.82;57.19;94584.13;4166489;28;20506;-57
2022/06/06 09:04:14;;;;;;;13.35;4.25;;;;;;;23.51;56.60;94595.13;4164362;28;20060;-56
2022/06/06 09:06:54;;;;;;;6.05;2.83;;;;;;;22.86;54.98;94585.66;4162274;28;20052;-55
2022/06/06 09:09:05;;;;;;;5.97;2.97;;;;;;;22.63;55.21;94589.22;4169586;28;20421;-54
2022/06/06 09:11:18;;;;;;;7.63;3.22;;;;;;;22.59;55.39;94603.28;4163726;28;20805;-58
2022/06/06 09:13:32;;;;;;;6.63;2.80;;;;;;;22.44;55.41;94601.13;4161101;28;20319;-58
2022/06/06 09:15:52;;;;;;;6.22;3.10;;;;;;;22.41;55.67;94607.75;4159408;28;20187;-56
2022/06/06 09:18:12;;;;;;;10.63;3.42;;;;;;;22.39;58.61;94609.84;4161604;28;20056;-57
2022/06/06 09:20:13;;;;;;;9.98;3.50;;;;;;;22.54;60.40;94608.50;4161412;28;20049;-55
2022/06/06 09:22:15;;;;;;;32.08;21.58;;;;;;;22.74;61.33;94627.63;4160968;28;20087;-56
2022/06/06 09:24:55;;;;;;;10.85;5.60;;;;;;;22.92;60.93;94633.84;4161132;28;20411;-58
2022/06/06 09:27:34;;;;;;;9.35;3.72;;;;;;;22.77;62.19;94650.38;4160838;28;20042;-58
2022/06/06 09:30:13;;;;;;;10.00;3.92;;;;;;;22.81;63.02;94654.19;4171015;28;20057;-56
2022/06/06 09:32:42;;;;;;;7.15;4.40;;;;;;;22.86;63.58;94648.94;4161828;28;20049;-57
2022/06/06 09:35:15;;;;;;;9.20;3.63;;;;;;;22.85;65.33;94650.00;4161449;28;20053;-56
2022/06/06 09:37:38;;;;;;;11.35;4.18;;;;;;;22.84;63.87;94646.53;4170001;28;20235;-56
2022/06/06 09:39:56;;;;;;;8.50;3.75;;;;;;;22.84;64.15;94648.38;4164108;28;20088;-55
2022/06/06 09:42:32;;;;;;;8.20;3.50;;;;;;;22.86;63.21;94649.75;4164505;28;20453;-54
2022/06/06 09:45:09;;;;;;;6.03;3.85;;;;;;;23.05;63.22;94644.28;4170195;28;20053;-57
2022/06/06 09:47:16;;;;;;;9.25;4.38;;;;;;;23.21;62.58;94637.34;4160011;28;20145;-54
2022/06/06 09:49:45;;;;;;;6.85;3.92;;;;;;;23.40;62.11;94636.09;4173556;28;20413;-57
2022/06/06 09:52:07;;;;;;;5.65;3.17;;;;;;;23.45;60.10;94641.53;4161760;28;20093;-55
2022/06/06 09:59:20;;;;;;;6.20;3.63;;;;;;;23.96;58.50;94622.84;4175826;28;20061;-55
2022/06/06 10:01:55;;;;;;;7.45;3.58;;;;;;;24.07;56.85;94616.63;4158769;28;20502;-57
2022/06/06 10:04:08;;;;;;;7.15;3.65;;;;;;;24.21;56.55;94619.75;4162303;28;20501;-55
2022/06/06 10:06:28;;;;;;;7.35;3.22;;;;;;;24.40;56.25;94617.63;4174521;28;20060;-55
2022/06/06 10:08:57;;;;;;;8.35;3.17;;;;;;;24.50;53.68;94619.63;4166011;28;20084;-56
2022/06/06 10:11:23;;;;;;;5.68;2.90;;;;;;;24.60;52.69;94621.66;4163102;28;20452;-58
2022/06/06 10:13:50;;;;;;;7.03;3.67;;;;;;;24.65;53.12;94627.06;4159408;28;20490;-56
2022/06/06 10:16:07;;;;;;;4.00;2.83;;;;;;;24.63;53.03;94618.47;4169460;28;20071;-56
2022/06/06 10:18:29;;;;;;;6.22;3.45;;;;;;;24.49;53.98;94626.88;4159580;28;20084;-57
2022/06/06 10:20:31;;;;;;;5.55;3.22;;;;;;;24.39;54.36;94639.28;4160344;28;20136;-57
2022/06/06 10:22:57;;;;;;;6.72;3.85;;;;;;;24.20;55.60;94660.97;4161215;28;20286;-55
2022/06/06 10:25:23;;;;;;;5.43;3.33;;;;;;;24.00;55.59;94672.16;4165621;28;20061;-55
2022/06/06 10:27:45;;;;;;;7.43;4.53;;;;;;;23.80;55.39;94674.50;4160952;28;20434;-54
2022/06/06 10:30:12;;;;;;;10.73;4.47;;;;;;;22.87;58.74;94663.94;4157396;28;20341;-56
2022/06/06 10:32:35;;;;;;;63.30;30.05;;;;;;;22.68;61.61;94649.94;4161207;28;20096;-54
2022/06/06 10:35:00;;;;;;;21.95;11.95;;;;;;;22.63;61.10;94655.16;4159736;28;20441;-56
2022/06/06 10:37:04;;;;;;;9.18;5.18;;;;;;;22.36;61.59;94652.19;4179566;28;20675;-55
2022/06/06 10:39:21;;;;;;;131.27;44.60;;;;;;;22.34;63.89;94663.06;4164631;28;20049;-54
2022/06/06 10:41:25;;;;;;;34.75;12.50;;;;;;;22.19;62.41;94655.50;4165428;28;20458;-55
2022/06/06 10:43:45;;;;;;;36.10;15.00;;;;;;;22.18;62.23;94650.44;4159565;28;20057;-58